KCWI

Clinton Municipal Airport

Clinton, Iowa, USA
METAR KCWI 230056Z AUTO 28007KT 10SM CLR 08/01 A3009 RMK AO2 SLP219 T00830011
Observed Flight Rules
Oct-23 @ 00:56 UTC (6 minutes ago) Visual Flight Rules
Wind Visibility Clouds
280° at 7 knots 10 miles
  • Clear skies
Temperatures Readings
Current 8°C / 46°F
Dewpoint 1°C / 34°F
Humidity 62%
Altimeter 30.09" Hg
Pressure 1021.9 hPa
Elevation 216
METAR KCWI 230056Z AUTO 28007KT 10SM CLR 08/01 A3009 RMK AO2 SLP219 T00830011
Observed Flight Rules
Oct-23 @ 00:56 UTC
(6 minutes ago)
VFR
Wind Visibility
280° at 7 knots 10 miles
Clouds
  • Clear skies
Temperature Dewpoint
8°C / 46°F 1°C / 34°F
Humidity Altimeter Pressure
62% 30.09" Hg 1021.9 hPa